sensor_id;sensor_type;location;lat;lon;timestamp;P1;durP1;ratioP1;P2;durP2;ratioP2
47251;SDS011;32991;51.374;11.586;2024-02-28T00:01:15;30.15;;;13.80;;
47251;SDS011;32991;51.374;11.586;2024-02-28T00:03:42;27.95;;;14.20;;
47251;SDS011;32991;51.374;11.586;2024-02-28T00:06:09;30.48;;;14.95;;
47251;SDS011;32991;51.374;11.586;2024-02-28T00:08:35;28.85;;;15.60;;
47251;SDS011;32991;51.374;11.586;2024-02-28T00:11:02;29.40;;;14.13;;
47251;SDS011;32991;51.374;11.586;2024-02-28T00:13:29;28.38;;;13.75;;
47251;SDS011;32991;51.374;11.586;2024-02-28T00:15:55;32.90;;;15.07;;
47251;SDS011;32991;51.374;11.586;2024-02-28T00:18:22;29.23;;;14.52;;
47251;SDS011;32991;51.374;11.586;2024-02-28T00:20:50;33.55;;;14.52;;
47251;SDS011;32991;51.374;11.586;2024-02-28T00:23:16;30.75;;;13.82;;
47251;SDS011;32991;51.374;11.586;2024-02-28T00:25:43;28.70;;;14.60;;
47251;SDS011;32991;51.374;11.586;2024-02-28T00:28:10;28.65;;;14.40;;
47251;SDS011;32991;51.374;11.586;2024-02-28T00:30:36;36.88;;;14.95;;
47251;SDS011;32991;51.374;11.586;2024-02-28T00:33:03;32.85;;;15.98;;
47251;SDS011;32991;51.374;11.586;2024-02-28T00:35:31;31.70;;;15.38;;
47251;SDS011;32991;51.374;11.586;2024-02-28T00:37:59;29.00;;;15.18;;
47251;SDS011;32991;51.374;11.586;2024-02-28T00:40:26;26.30;;;13.73;;
47251;SDS011;32991;51.374;11.586;2024-02-28T00:42:53;30.63;;;14.43;;
47251;SDS011;32991;51.374;11.586;2024-02-28T00:45:20;27.90;;;12.80;;
47251;SDS011;32991;51.374;11.586;2024-02-28T00:47:46;25.38;;;13.02;;
47251;SDS011;32991;51.374;11.586;2024-02-28T00:50:13;27.88;;;12.70;;
47251;SDS011;32991;51.374;11.586;2024-02-28T00:52:40;26.23;;;12.73;;
47251;SDS011;32991;51.374;11.586;2024-02-28T00:55:07;27.05;;;13.40;;
47251;SDS011;32991;51.374;11.586;2024-02-28T00:57:34;25.88;;;13.65;;
47251;SDS011;32991;51.374;11.586;2024-02-28T01:00:00;26.42;;;14.07;;
47251;SDS011;32991;51.374;11.586;2024-02-28T01:02:27;24.85;;;13.70;;
47251;SDS011;32991;51.374;11.586;2024-02-28T01:04:54;22.38;;;12.05;;
47251;SDS011;32991;51.374;11.586;2024-02-28T01:07:20;26.90;;;12.82;;
47251;SDS011;32991;51.374;11.586;2024-02-28T01:09:47;28.17;;;13.13;;
47251;SDS011;32991;51.374;11.586;2024-02-28T01:12:13;26.33;;;13.45;;
47251;SDS011;32991;51.374;11.586;2024-02-28T01:14:40;23.60;;;13.43;;
47251;SDS011;32991;51.374;11.586;2024-02-28T01:17:06;30.42;;;13.25;;
47251;SDS011;32991;51.374;11.586;2024-02-28T01:19:33;26.80;;;14.23;;
47251;SDS011;32991;51.374;11.586;2024-02-28T01:21:59;26.23;;;12.70;;
47251;SDS011;32991;51.374;11.586;2024-02-28T01:24:26;26.67;;;14.27;;
47251;SDS011;32991;51.374;11.586;2024-02-28T01:26:53;27.23;;;13.38;;
47251;SDS011;32991;51.374;11.586;2024-02-28T01:29:19;27.20;;;13.60;;
47251;SDS011;32991;51.374;11.586;2024-02-28T01:31:46;29.45;;;13.90;;
47251;SDS011;32991;51.374;11.586;2024-02-28T01:34:13;29.05;;;14.55;;
47251;SDS011;32991;51.374;11.586;2024-02-28T01:36:39;26.38;;;13.32;;
47251;SDS011;32991;51.374;11.586;2024-02-28T01:39:06;29.80;;;14.15;;
47251;SDS011;32991;51.374;11.586;2024-02-28T01:41:32;26.42;;;14.13;;
47251;SDS011;32991;51.374;11.586;2024-02-28T01:43:59;30.52;;;15.48;;
47251;SDS011;32991;51.374;11.586;2024-02-28T01:46:26;28.23;;;13.70;;
47251;SDS011;32991;51.374;11.586;2024-02-28T01:48:53;28.80;;;13.88;;
47251;SDS011;32991;51.374;11.586;2024-02-28T01:51:24;26.30;;;14.73;;
47251;SDS011;32991;51.374;11.586;2024-02-28T01:53:53;27.05;;;13.70;;
47251;SDS011;32991;51.374;11.586;2024-02-28T01:56:20;26.77;;;12.10;;
47251;SDS011;32991;51.374;11.586;2024-02-28T01:58:49;26.92;;;13.13;;
47251;SDS011;32991;51.374;11.586;2024-02-28T02:01:16;26.92;;;13.93;;
47251;SDS011;32991;51.374;11.586;2024-02-28T02:03:49;27.65;;;13.13;;
47251;SDS011;32991;51.374;11.586;2024-02-28T02:06:16;26.00;;;12.90;;
47251;SDS011;32991;51.374;11.586;2024-02-28T02:08:42;25.95;;;14.30;;
47251;SDS011;32991;51.374;11.586;2024-02-28T02:11:09;27.13;;;13.88;;
47251;SDS011;32991;51.374;11.586;2024-02-28T02:13:46;28.90;;;13.82;;
47251;SDS011;32991;51.374;11.586;2024-02-28T02:16:13;29.17;;;16.13;;
47251;SDS011;32991;51.374;11.586;2024-02-28T02:18:40;24.83;;;13.18;;
47251;SDS011;32991;51.374;11.586;2024-02-28T02:21:07;26.65;;;14.25;;
47251;SDS011;32991;51.374;11.586;2024-02-28T02:23:34;27.98;;;14.88;;
47251;SDS011;32991;51.374;11.586;2024-02-28T02:26:01;32.22;;;15.70;;
47251;SDS011;32991;51.374;11.586;2024-02-28T02:28:28;28.75;;;15.00;;
47251;SDS011;32991;51.374;11.586;2024-02-28T02:30:55;28.88;;;13.65;;
47251;SDS011;32991;51.374;11.586;2024-02-28T02:33:21;28.20;;;14.52;;
47251;SDS011;32991;51.374;11.586;2024-02-28T02:35:48;25.45;;;13.10;;
47251;SDS011;32991;51.374;11.586;2024-02-28T02:38:14;25.55;;;13.00;;
47251;SDS011;32991;51.374;11.586;2024-02-28T02:40:41;22.77;;;12.88;;
47251;SDS011;32991;51.374;11.586;2024-02-28T02:43:07;27.15;;;14.02;;
47251;SDS011;32991;51.374;11.586;2024-02-28T02:45:34;25.10;;;13.85;;
47251;SDS011;32991;51.374;11.586;2024-02-28T02:48:01;29.60;;;14.52;;
47251;SDS011;32991;51.374;11.586;2024-02-28T02:50:27;24.92;;;11.77;;
47251;SDS011;32991;51.374;11.586;2024-02-28T02:52:54;23.63;;;12.20;;
47251;SDS011;32991;51.374;11.586;2024-02-28T02:55:20;23.30;;;12.77;;
47251;SDS011;32991;51.374;11.586;2024-02-28T02:57:47;23.10;;;12.88;;
47251;SDS011;32991;51.374;11.586;2024-02-28T03:00:14;19.90;;;11.20;;
47251;SDS011;32991;51.374;11.586;2024-02-28T03:02:41;25.33;;;11.95;;
47251;SDS011;32991;51.374;11.586;2024-02-28T03:05:08;21.17;;;12.82;;
47251;SDS011;32991;51.374;11.586;2024-02-28T03:07:35;25.13;;;12.93;;
47251;SDS011;32991;51.374;11.586;2024-02-28T03:10:01;21.40;;;12.50;;
47251;SDS011;32991;51.374;11.586;2024-02-28T03:12:29;20.23;;;11.70;;
47251;SDS011;32991;51.374;11.586;2024-02-28T03:14:56;17.15;;;10.70;;
47251;SDS011;32991;51.374;11.586;2024-02-28T03:17:23;21.02;;;10.38;;
47251;SDS011;32991;51.374;11.586;2024-02-28T03:19:50;17.38;;;8.98;;
47251;SDS011;32991;51.374;11.586;2024-02-28T03:22:16;21.08;;;11.18;;
47251;SDS011;32991;51.374;11.586;2024-02-28T03:24:43;19.08;;;9.75;;
47251;SDS011;32991;51.374;11.586;2024-02-28T03:27:09;20.45;;;10.82;;
47251;SDS011;32991;51.374;11.586;2024-02-28T03:29:36;20.13;;;10.75;;
47251;SDS011;32991;51.374;11.586;2024-02-28T03:32:03;20.60;;;10.65;;
47251;SDS011;32991;51.374;11.586;2024-02-28T03:34:30;21.88;;;11.38;;
47251;SDS011;32991;51.374;11.586;2024-02-28T03:36:57;20.83;;;10.25;;
47251;SDS011;32991;51.374;11.586;2024-02-28T03:39:23;17.40;;;10.52;;
47251;SDS011;32991;51.374;11.586;2024-02-28T03:41:50;20.73;;;11.15;;
47251;SDS011;32991;51.374;11.586;2024-02-28T03:44:17;18.50;;;9.73;;
47251;SDS011;32991;51.374;11.586;2024-02-28T03:46:43;20.88;;;10.15;;
47251;SDS011;32991;51.374;11.586;2024-02-28T03:49:10;22.27;;;10.05;;
47251;SDS011;32991;51.374;11.586;2024-02-28T03:51:40;22.13;;;10.15;;
47251;SDS011;32991;51.374;11.586;2024-02-28T03:54:07;20.55;;;10.35;;
47251;SDS011;32991;51.374;11.586;2024-02-28T03:56:34;20.38;;;11.77;;
47251;SDS011;32991;51.374;11.586;2024-02-28T03:59:01;21.42;;;10.60;;
47251;SDS011;32991;51.374;11.586;2024-02-28T04:01:28;20.75;;;11.73;;
47251;SDS011;32991;51.374;11.586;2024-02-28T04:03:55;26.10;;;12.00;;
47251;SDS011;32991;51.374;11.586;2024-02-28T04:06:21;25.13;;;12.45;;
47251;SDS011;32991;51.374;11.586;2024-02-28T04:08:48;25.83;;;13.60;;
47251;SDS011;32991;51.374;11.586;2024-02-28T04:11:14;26.05;;;14.13;;
47251;SDS011;32991;51.374;11.586;2024-02-28T04:13:41;25.05;;;12.80;;
47251;SDS011;32991;51.374;11.586;2024-02-28T04:16:08;23.27;;;12.70;;
47251;SDS011;32991;51.374;11.586;2024-02-28T04:18:35;22.35;;;10.85;;
47251;SDS011;32991;51.374;11.586;2024-02-28T04:21:02;30.02;;;13.77;;
47251;SDS011;32991;51.374;11.586;2024-02-28T04:23:29;23.67;;;11.13;;
47251;SDS011;32991;51.374;11.586;2024-02-28T04:25:55;26.70;;;14.60;;
47251;SDS011;32991;51.374;11.586;2024-02-28T04:28:22;23.00;;;13.05;;
47251;SDS011;32991;51.374;11.586;2024-02-28T04:30:48;23.98;;;13.45;;
47251;SDS011;32991;51.374;11.586;2024-02-28T04:33:15;22.65;;;11.60;;
47251;SDS011;32991;51.374;11.586;2024-02-28T04:35:42;24.17;;;12.00;;
47251;SDS011;32991;51.374;11.586;2024-02-28T04:38:08;26.67;;;13.77;;
47251;SDS011;32991;51.374;11.586;2024-02-28T04:40:35;26.05;;;12.13;;
47251;SDS011;32991;51.374;11.586;2024-02-28T04:43:02;24.63;;;13.50;;
47251;SDS011;32991;51.374;11.586;2024-02-28T04:45:30;28.48;;;13.00;;
47251;SDS011;32991;51.374;11.586;2024-02-28T04:47:56;24.92;;;12.25;;
47251;SDS011;32991;51.374;11.586;2024-02-28T04:50:24;30.05;;;13.15;;
47251;SDS011;32991;51.374;11.586;2024-02-28T04:52:50;30.85;;;13.75;;
47251;SDS011;32991;51.374;11.586;2024-02-28T04:55:18;26.23;;;13.02;;
47251;SDS011;32991;51.374;11.586;2024-02-28T04:57:44;30.50;;;13.23;;
47251;SDS011;32991;51.374;11.586;2024-02-28T05:00:11;28.33;;;13.18;;
47251;SDS011;32991;51.374;11.586;2024-02-28T05:02:38;25.52;;;13.25;;
47251;SDS011;32991;51.374;11.586;2024-02-28T05:05:05;33.22;;;15.55;;
47251;SDS011;32991;51.374;11.586;2024-02-28T05:07:32;26.85;;;13.32;;
47251;SDS011;32991;51.374;11.586;2024-02-28T05:09:58;26.95;;;13.13;;
47251;SDS011;32991;51.374;11.586;2024-02-28T05:12:25;22.67;;;11.27;;
47251;SDS011;32991;51.374;11.586;2024-02-28T05:14:52;27.67;;;13.63;;
47251;SDS011;32991;51.374;11.586;2024-02-28T05:17:20;25.13;;;14.00;;
47251;SDS011;32991;51.374;11.586;2024-02-28T05:19:47;28.40;;;16.02;;
47251;SDS011;32991;51.374;11.586;2024-02-28T05:22:14;28.45;;;15.75;;
47251;SDS011;32991;51.374;11.586;2024-02-28T05:24:40;27.98;;;14.02;;
47251;SDS011;32991;51.374;11.586;2024-02-28T05:27:10;24.42;;;12.48;;
47251;SDS011;32991;51.374;11.586;2024-02-28T05:29:36;23.23;;;12.23;;
47251;SDS011;32991;51.374;11.586;2024-02-28T05:32:03;26.40;;;13.30;;
47251;SDS011;32991;51.374;11.586;2024-02-28T05:34:30;28.40;;;13.68;;
47251;SDS011;32991;51.374;11.586;2024-02-28T05:36:57;24.13;;;13.05;;
47251;SDS011;32991;51.374;11.586;2024-02-28T05:39:23;30.95;;;14.38;;
47251;SDS011;32991;51.374;11.586;2024-02-28T05:41:50;28.45;;;14.30;;
47251;SDS011;32991;51.374;11.586;2024-02-28T05:44:17;35.13;;;14.43;;
47251;SDS011;32991;51.374;11.586;2024-02-28T05:46:43;28.30;;;14.23;;
47251;SDS011;32991;51.374;11.586;2024-02-28T05:49:10;29.33;;;14.48;;
47251;SDS011;32991;51.374;11.586;2024-02-28T05:51:37;30.52;;;13.65;;
47251;SDS011;32991;51.374;11.586;2024-02-28T05:54:03;27.63;;;13.20;;
47251;SDS011;32991;51.374;11.586;2024-02-28T05:56:30;27.70;;;14.98;;
47251;SDS011;32991;51.374;11.586;2024-02-28T05:58:56;26.85;;;13.18;;
47251;SDS011;32991;51.374;11.586;2024-02-28T06:01:23;26.40;;;12.90;;
47251;SDS011;32991;51.374;11.586;2024-02-28T06:03:50;28.80;;;14.32;;
47251;SDS011;32991;51.374;11.586;2024-02-28T06:06:17;26.17;;;12.98;;
47251;SDS011;32991;51.374;11.586;2024-02-28T06:08:44;20.10;;;11.00;;
47251;SDS011;32991;51.374;11.586;2024-02-28T06:11:10;25.67;;;12.70;;
47251;SDS011;32991;51.374;11.586;2024-02-28T06:13:37;26.42;;;12.40;;
47251;SDS011;32991;51.374;11.586;2024-02-28T06:16:06;25.33;;;11.80;;
47251;SDS011;32991;51.374;11.586;2024-02-28T06:18:33;23.75;;;11.45;;
47251;SDS011;32991;51.374;11.586;2024-02-28T06:21:00;30.75;;;13.15;;
47251;SDS011;32991;51.374;11.586;2024-02-28T06:23:27;22.85;;;11.38;;
47251;SDS011;32991;51.374;11.586;2024-02-28T06:25:56;23.88;;;12.13;;
47251;SDS011;32991;51.374;11.586;2024-02-28T06:28:23;25.98;;;12.43;;
47251;SDS011;32991;51.374;11.586;2024-02-28T06:30:49;31.55;;;12.38;;
47251;SDS011;32991;51.374;11.586;2024-02-28T06:33:16;22.55;;;11.60;;
47251;SDS011;32991;51.374;11.586;2024-02-28T06:35:43;27.02;;;12.13;;
47251;SDS011;32991;51.374;11.586;2024-02-28T06:38:09;26.65;;;12.93;;
47251;SDS011;32991;51.374;11.586;2024-02-28T06:40:36;27.35;;;12.70;;
47251;SDS011;32991;51.374;11.586;2024-02-28T06:43:02;25.77;;;11.77;;
47251;SDS011;32991;51.374;11.586;2024-02-28T06:45:29;26.65;;;12.48;;
47251;SDS011;32991;51.374;11.586;2024-02-28T06:47:57;27.65;;;11.30;;
47251;SDS011;32991;51.374;11.586;2024-02-28T06:50:23;26.15;;;12.70;;
47251;SDS011;32991;51.374;11.586;2024-02-28T06:52:50;26.73;;;13.88;;
47251;SDS011;32991;51.374;11.586;2024-02-28T06:55:20;26.67;;;12.55;;
47251;SDS011;32991;51.374;11.586;2024-02-28T06:57:47;26.52;;;12.80;;
47251;SDS011;32991;51.374;11.586;2024-02-28T07:00:14;29.67;;;11.82;;
47251;SDS011;32991;51.374;11.586;2024-02-28T07:02:42;27.38;;;11.55;;
47251;SDS011;32991;51.374;11.586;2024-02-28T07:05:10;23.65;;;12.35;;
47251;SDS011;32991;51.374;11.586;2024-02-28T07:07:37;29.17;;;13.52;;
47251;SDS011;32991;51.374;11.586;2024-02-28T07:10:04;30.83;;;13.30;;
47251;SDS011;32991;51.374;11.586;2024-02-28T07:12:31;26.00;;;12.18;;
47251;SDS011;32991;51.374;11.586;2024-02-28T07:14:58;26.50;;;14.35;;
47251;SDS011;32991;51.374;11.586;2024-02-28T07:17:25;24.88;;;12.40;;
47251;SDS011;32991;51.374;11.586;2024-02-28T07:19:52;27.25;;;13.00;;
47251;SDS011;32991;51.374;11.586;2024-02-28T07:22:19;26.77;;;14.10;;
47251;SDS011;32991;51.374;11.586;2024-02-28T07:24:45;26.80;;;14.25;;
47251;SDS011;32991;51.374;11.586;2024-02-28T07:27:12;25.42;;;13.02;;
47251;SDS011;32991;51.374;11.586;2024-02-28T07:29:38;23.67;;;12.48;;
47251;SDS011;32991;51.374;11.586;2024-02-28T07:32:05;24.27;;;13.25;;
47251;SDS011;32991;51.374;11.586;2024-02-28T07:34:32;25.20;;;13.73;;
47251;SDS011;32991;51.374;11.586;2024-02-28T07:37:00;29.27;;;15.35;;
47251;SDS011;32991;51.374;11.586;2024-02-28T07:39:27;23.48;;;12.18;;
47251;SDS011;32991;51.374;11.586;2024-02-28T07:41:54;23.48;;;13.23;;
47251;SDS011;32991;51.374;11.586;2024-02-28T07:44:22;24.63;;;12.95;;
47251;SDS011;32991;51.374;11.586;2024-02-28T07:46:48;22.88;;;12.35;;
47251;SDS011;32991;51.374;11.586;2024-02-28T07:49:17;20.65;;;12.40;;
47251;SDS011;32991;51.374;11.586;2024-02-28T07:51:44;26.50;;;14.32;;
47251;SDS011;32991;51.374;11.586;2024-02-28T07:54:11;23.63;;;12.27;;
47251;SDS011;32991;51.374;11.586;2024-02-28T07:56:38;21.45;;;12.82;;
47251;SDS011;32991;51.374;11.586;2024-02-28T07:59:04;27.05;;;13.63;;
47251;SDS011;32991;51.374;11.586;2024-02-28T08:01:31;23.05;;;13.30;;
47251;SDS011;32991;51.374;11.586;2024-02-28T08:03:58;22.88;;;13.43;;
47251;SDS011;32991;51.374;11.586;2024-02-28T08:06:26;22.85;;;13.02;;
47251;SDS011;32991;51.374;11.586;2024-02-28T08:08:53;20.40;;;11.88;;
47251;SDS011;32991;51.374;11.586;2024-02-28T08:11:19;26.60;;;14.73;;
47251;SDS011;32991;51.374;11.586;2024-02-28T08:13:46;21.05;;;12.73;;
47251;SDS011;32991;51.374;11.586;2024-02-28T08:16:13;21.40;;;13.50;;
47251;SDS011;32991;51.374;11.586;2024-02-28T08:18:39;23.23;;;12.85;;
47251;SDS011;32991;51.374;11.586;2024-02-28T08:21:06;20.25;;;12.20;;
47251;SDS011;32991;51.374;11.586;2024-02-28T08:23:33;23.15;;;12.82;;
47251;SDS011;32991;51.374;11.586;2024-02-28T08:26:00;23.10;;;14.55;;
47251;SDS011;32991;51.374;11.586;2024-02-28T08:28:26;25.80;;;14.32;;
47251;SDS011;32991;51.374;11.586;2024-02-28T08:30:53;22.48;;;18.38;;
47251;SDS011;32991;51.374;11.586;2024-02-28T08:33:19;21.27;;;12.65;;
47251;SDS011;32991;51.374;11.586;2024-02-28T08:35:50;24.70;;;18.30;;
47251;SDS011;32991;51.374;11.586;2024-02-28T08:38:18;22.42;;;12.88;;
47251;SDS011;32991;51.374;11.586;2024-02-28T08:40:44;23.00;;;14.85;;
47251;SDS011;32991;51.374;11.586;2024-02-28T08:43:12;22.85;;;16.20;;
47251;SDS011;32991;51.374;11.586;2024-02-28T08:45:39;18.95;;;12.13;;
47251;SDS011;32991;51.374;11.586;2024-02-28T08:48:06;21.40;;;12.23;;
47251;SDS011;32991;51.374;11.586;2024-02-28T08:50:34;23.42;;;18.70;;
47251;SDS011;32991;51.374;11.586;2024-02-28T08:53:01;21.48;;;18.05;;
47251;SDS011;32991;51.374;11.586;2024-02-28T08:55:29;21.60;;;14.40;;
47251;SDS011;32991;51.374;11.586;2024-02-28T08:57:56;21.33;;;18.05;;
47251;SDS011;32991;51.374;11.586;2024-02-28T09:00:23;20.40;;;17.55;;
47251;SDS011;32991;51.374;11.586;2024-02-28T09:02:50;21.30;;;17.65;;
47251;SDS011;32991;51.374;11.586;2024-02-28T09:05:17;21.27;;;17.98;;
47251;SDS011;32991;51.374;11.586;2024-02-28T09:07:45;22.23;;;19.05;;
47251;SDS011;32991;51.374;11.586;2024-02-28T09:10:17;22.48;;;19.17;;
47251;SDS011;32991;51.374;11.586;2024-02-28T09:12:50;22.83;;;19.05;;
47251;SDS011;32991;51.374;11.586;2024-02-28T09:15:17;21.38;;;19.02;;
47251;SDS011;32991;51.374;11.586;2024-02-28T09:17:43;20.40;;;17.77;;
47251;SDS011;32991;51.374;11.586;2024-02-28T09:20:11;22.10;;;17.83;;
47251;SDS011;32991;51.374;11.586;2024-02-28T09:22:38;21.40;;;18.88;;
47251;SDS011;32991;51.374;11.586;2024-02-28T09:25:05;19.05;;;17.05;;
47251;SDS011;32991;51.374;11.586;2024-02-28T09:27:32;21.35;;;18.80;;
47251;SDS011;32991;51.374;11.586;2024-02-28T09:29:59;20.38;;;18.23;;
47251;SDS011;32991;51.374;11.586;2024-02-28T09:32:25;20.70;;;18.55;;
47251;SDS011;32991;51.374;11.586;2024-02-28T09:34:52;22.35;;;19.95;;
47251;SDS011;32991;51.374;11.586;2024-02-28T09:37:19;22.52;;;18.77;;
47251;SDS011;32991;51.374;11.586;2024-02-28T09:39:47;20.35;;;18.20;;
47251;SDS011;32991;51.374;11.586;2024-02-28T09:42:14;21.20;;;18.98;;
47251;SDS011;32991;51.374;11.586;2024-02-28T09:44:41;22.63;;;19.13;;
47251;SDS011;32991;51.374;11.586;2024-02-28T09:47:08;21.00;;;17.45;;
47251;SDS011;32991;51.374;11.586;2024-02-28T09:49:35;19.05;;;17.05;;
47251;SDS011;32991;51.374;11.586;2024-02-28T09:52:05;19.23;;;17.08;;
47251;SDS011;32991;51.374;11.586;2024-02-28T09:54:32;21.00;;;17.30;;
47251;SDS011;32991;51.374;11.586;2024-02-28T09:56:58;20.05;;;17.95;;
47251;SDS011;32991;51.374;11.586;2024-02-28T09:59:25;19.52;;;17.42;;
47251;SDS011;32991;51.374;11.586;2024-02-28T10:02:05;19.98;;;17.80;;
47251;SDS011;32991;51.374;11.586;2024-02-28T10:04:32;20.02;;;18.02;;
47251;SDS011;32991;51.374;11.586;2024-02-28T10:07:09;20.58;;;18.42;;
47251;SDS011;32991;51.374;11.586;2024-02-28T10:09:39;21.30;;;18.52;;
47251;SDS011;32991;51.374;11.586;2024-02-28T10:12:07;19.95;;;17.88;;
47251;SDS011;32991;51.374;11.586;2024-02-28T10:14:34;21.20;;;19.00;;
47251;SDS011;32991;51.374;11.586;2024-02-28T10:17:00;19.67;;;17.58;;
47251;SDS011;32991;51.374;11.586;2024-02-28T10:19:27;20.58;;;18.42;;
47251;SDS011;32991;51.374;11.586;2024-02-28T10:21:54;21.55;;;19.25;;
47251;SDS011;32991;51.374;11.586;2024-02-28T10:24:20;21.58;;;19.27;;
47251;SDS011;32991;51.374;11.586;2024-02-28T10:26:50;20.70;;;18.60;;
47251;SDS011;32991;51.374;11.586;2024-02-28T10:29:23;20.97;;;18.87;;
47251;SDS011;32991;51.374;11.586;2024-02-28T10:31:51;21.65;;;19.38;;
47251;SDS011;32991;51.374;11.586;2024-02-28T10:34:19;22.65;;;20.10;;
47251;SDS011;32991;51.374;11.586;2024-02-28T10:36:45;21.40;;;19.20;;
47251;SDS011;32991;51.374;11.586;2024-02-28T10:39:12;20.48;;;18.27;;
47251;SDS011;32991;51.374;11.586;2024-02-28T10:41:40;22.42;;;20.02;;
47251;SDS011;32991;51.374;11.586;2024-02-28T10:44:07;21.05;;;18.83;;
47251;SDS011;32991;51.374;11.586;2024-02-28T10:46:34;22.05;;;19.38;;
47251;SDS011;32991;51.374;11.586;2024-02-28T10:49:03;22.10;;;18.80;;
47251;SDS011;32991;51.374;11.586;2024-02-28T10:51:31;21.00;;;18.90;;
47251;SDS011;32991;51.374;11.586;2024-02-28T10:54:07;21.75;;;19.45;;
47251;SDS011;32991;51.374;11.586;2024-02-28T10:56:41;22.52;;;18.45;;
47251;SDS011;32991;51.374;11.586;2024-02-28T10:59:09;20.55;;;18.45;;
47251;SDS011;32991;51.374;11.586;2024-02-28T11:01:43;23.50;;;19.17;;
47251;SDS011;32991;51.374;11.586;2024-02-28T11:04:12;21.10;;;18.38;;
47251;SDS011;32991;51.374;11.586;2024-02-28T11:06:49;20.55;;;18.45;;
47251;SDS011;32991;51.374;11.586;2024-02-28T11:09:20;19.67;;;17.67;;
47251;SDS011;32991;51.374;11.586;2024-02-28T11:11:52;21.15;;;18.92;;
47251;SDS011;32991;51.374;11.586;2024-02-28T11:14:19;20.80;;;18.60;;
47251;SDS011;32991;51.374;11.586;2024-02-28T11:16:58;19.77;;;17.80;;
47251;SDS011;32991;51.374;11.586;2024-02-28T11:19:29;20.02;;;17.73;;
47251;SDS011;32991;51.374;11.586;2024-02-28T11:22:00;17.63;;;15.82;;
47251;SDS011;32991;51.374;11.586;2024-02-28T11:24:29;19.67;;;17.52;;
47251;SDS011;32991;51.374;11.586;2024-02-28T11:26:57;21.23;;;17.77;;
47251;SDS011;32991;51.374;11.586;2024-02-28T11:29:24;19.83;;;17.75;;
47251;SDS011;32991;51.374;11.586;2024-02-28T11:31:52;20.38;;;18.27;;
47251;SDS011;32991;51.374;11.586;2024-02-28T11:34:20;19.38;;;17.38;;
47251;SDS011;32991;51.374;11.586;2024-02-28T11:36:47;19.60;;;17.50;;
47251;SDS011;32991;51.374;11.586;2024-02-28T11:39:15;20.40;;;18.33;;
47251;SDS011;32991;51.374;11.586;2024-02-28T11:41:42;20.23;;;18.15;;
47251;SDS011;32991;51.374;11.586;2024-02-28T11:44:18;19.98;;;17.75;;
47251;SDS011;32991;51.374;11.586;2024-02-28T11:46:46;19.58;;;17.58;;
47251;SDS011;32991;51.374;11.586;2024-02-28T11:49:13;18.75;;;16.77;;
47251;SDS011;32991;51.374;11.586;2024-02-28T11:51:43;19.15;;;17.15;;
47251;SDS011;32991;51.374;11.586;2024-02-28T11:54:11;19.83;;;17.77;;
47251;SDS011;32991;51.374;11.586;2024-02-28T11:56:39;25.70;;;22.90;;
47251;SDS011;32991;51.374;11.586;2024-02-28T11:59:06;19.75;;;17.65;;
47251;SDS011;32991;51.374;11.586;2024-02-28T12:01:34;19.63;;;17.52;;
47251;SDS011;32991;51.374;11.586;2024-02-28T12:04:03;18.52;;;16.60;;
47251;SDS011;32991;51.374;11.586;2024-02-28T12:06:35;18.42;;;16.48;;
47251;SDS011;32991;51.374;11.586;2024-02-28T12:09:08;17.83;;;16.05;;
47251;SDS011;32991;51.374;11.586;2024-02-28T12:11:36;18.13;;;16.33;;
47251;SDS011;32991;51.374;11.586;2024-02-28T12:14:04;17.63;;;15.77;;
47251;SDS011;32991;51.374;11.586;2024-02-28T12:16:33;18.80;;;16.88;;
47251;SDS011;32991;51.374;11.586;2024-02-28T12:19:00;19.25;;;17.20;;
47251;SDS011;32991;51.374;11.586;2024-02-28T12:21:26;18.83;;;16.85;;
47251;SDS011;32991;51.374;11.586;2024-02-28T12:23:53;16.88;;;14.80;;
47251;SDS011;32991;51.374;11.586;2024-02-28T12:26:22;16.67;;;14.98;;
47251;SDS011;32991;51.374;11.586;2024-02-28T12:28:49;16.25;;;14.55;;
47251;SDS011;32991;51.374;11.586;2024-02-28T12:31:16;19.00;;;15.00;;
47251;SDS011;32991;51.374;11.586;2024-02-28T12:33:42;15.63;;;14.02;;
47251;SDS011;32991;51.374;11.586;2024-02-28T12:36:09;17.63;;;15.02;;
47251;SDS011;32991;51.374;11.586;2024-02-28T12:38:36;16.10;;;14.50;;
47251;SDS011;32991;51.374;11.586;2024-02-28T12:41:03;15.75;;;14.13;;
47251;SDS011;32991;51.374;11.586;2024-02-28T12:43:30;16.88;;;14.55;;
47251;SDS011;32991;51.374;11.586;2024-02-28T12:45:58;15.98;;;14.38;;
47251;SDS011;32991;51.374;11.586;2024-02-28T12:48:25;14.68;;;13.18;;
47251;SDS011;32991;51.374;11.586;2024-02-28T12:50:52;17.02;;;13.60;;
47251;SDS011;32991;51.374;11.586;2024-02-28T12:53:18;15.52;;;13.63;;
47251;SDS011;32991;51.374;11.586;2024-02-28T12:55:45;16.17;;;14.50;;
47251;SDS011;32991;51.374;11.586;2024-02-28T12:58:11;16.52;;;13.68;;
47251;SDS011;32991;51.374;11.586;2024-02-28T13:00:38;15.70;;;14.10;;
47251;SDS011;32991;51.374;11.586;2024-02-28T13:03:05;14.95;;;13.35;;
47251;SDS011;32991;51.374;11.586;2024-02-28T13:05:32;14.98;;;13.38;;
47251;SDS011;32991;51.374;11.586;2024-02-28T13:07:59;15.32;;;13.68;;
47251;SDS011;32991;51.374;11.586;2024-02-28T13:10:25;15.25;;;13.65;;
47251;SDS011;32991;51.374;11.586;2024-02-28T13:12:52;16.10;;;14.40;;
47251;SDS011;32991;51.374;11.586;2024-02-28T13:15:19;16.05;;;14.35;;
47251;SDS011;32991;51.374;11.586;2024-02-28T13:17:46;15.68;;;14.07;;
47251;SDS011;32991;51.374;11.586;2024-02-28T13:20:16;14.73;;;13.20;;
47251;SDS011;32991;51.374;11.586;2024-02-28T13:22:43;15.52;;;13.93;;
47251;SDS011;32991;51.374;11.586;2024-02-28T13:25:10;16.70;;;15.00;;
47251;SDS011;32991;51.374;11.586;2024-02-28T13:27:37;16.33;;;14.65;;
47251;SDS011;32991;51.374;11.586;2024-02-28T13:30:04;16.02;;;14.35;;
47251;SDS011;32991;51.374;11.586;2024-02-28T13:32:31;15.50;;;13.88;;
47251;SDS011;32991;51.374;11.586;2024-02-28T13:34:58;12.98;;;11.63;;
47251;SDS011;32991;51.374;11.586;2024-02-28T13:37:26;15.00;;;12.93;;
47251;SDS011;32991;51.374;11.586;2024-02-28T13:39:52;13.85;;;12.40;;
47251;SDS011;32991;51.374;11.586;2024-02-28T13:42:19;14.77;;;13.18;;
47251;SDS011;32991;51.374;11.586;2024-02-28T13:44:50;15.25;;;13.27;;
47251;SDS011;32991;51.374;11.586;2024-02-28T13:47:18;15.40;;;13.73;;
47251;SDS011;32991;51.374;11.586;2024-02-28T13:49:44;21.45;;;14.13;;
47251;SDS011;32991;51.374;11.586;2024-02-28T13:52:11;14.82;;;13.23;;
47251;SDS011;32991;51.374;11.586;2024-02-28T13:54:37;16.33;;;14.63;;
47251;SDS011;32991;51.374;11.586;2024-02-28T13:57:04;15.57;;;13.93;;
47251;SDS011;32991;51.374;11.586;2024-02-28T13:59:33;15.73;;;14.10;;
47251;SDS011;32991;51.374;11.586;2024-02-28T14:02:00;16.23;;;13.98;;
47251;SDS011;32991;51.374;11.586;2024-02-28T14:04:27;17.50;;;13.75;;
47251;SDS011;32991;51.374;11.586;2024-02-28T14:06:54;14.77;;;13.25;;
47251;SDS011;32991;51.374;11.586;2024-02-28T14:09:21;14.82;;;12.82;;